Terminal Aerodrome Forecast
Issued by NWS Caribou, ME

Home | Current Version | Previous Version | Text Only | Print | Product List | Glossary On
Versions: 1 2 3 4 5 6 7 8 9 10 11 12 13 14 15 16 17 18 19 20 21 22 23 24 25 26 27 28 29 30 31
000
FTUS41 KCAR 252300
TAFCAR
TAF
KCAR 252320Z 2600/2624 VRB03KT P6SM SCT008 BKN045
      TEMPO 2600/2601 BKN006
     FM260400 12005KT P6SM VCSH SCT008 OVC020
     FM260600 13005KT 5SM -SHRA OVC012
     FM260800 13005KT 4SM -SHRA BR OVC008
     FM260900 13005KT 3SM -SHRA BR OVC005
     FM261400 16004KT 4SM -SHRA OVC008
     FM261700 VRB02KT 6SM -SHRA OVC015
     FM262100 29004KT P6SM OVC020=

USA.gov is the U.S. government's official web portal to all federal, state and local government web resources and services.